sensor_id;sensor_type;location;lat;lon;timestamp;pressure;altitude;pressure_sealevel;temperature;humidity
37648;BME280;23490;53.656;10.076;2023-02-03T00:00:48;99692.69;;;-145.95;100.00
37648;BME280;23490;53.656;10.076;2023-02-03T00:03:14;99674.09;;;-145.95;100.00
37648;BME280;23490;53.656;10.076;2023-02-03T00:05:39;99641.06;;;-145.95;100.00
37648;BME280;23490;53.656;10.076;2023-02-03T00:08:06;99678.22;;;-145.95;100.00
37648;BME280;23490;53.656;10.076;2023-02-03T00:10:33;99700.94;;;-145.95;100.00
37648;BME280;23490;53.656;10.076;2023-02-03T00:13:00;99628.66;;;-145.95;100.00
37648;BME280;23490;53.656;10.076;2023-02-03T00:15:25;99690.63;;;-145.95;100.00
37648;BME280;23490;53.656;10.076;2023-02-03T00:17:51;99653.44;;;-145.95;100.00
37648;BME280;23490;53.656;10.076;2023-02-03T00:20:16;99663.78;;;-145.95;100.00
37648;BME280;23490;53.656;10.076;2023-02-03T00:22:42;99632.78;;;-145.95;100.00
37648;BME280;23490;53.656;10.076;2023-02-03T00:25:07;99599.75;;;-145.95;100.00
37648;BME280;23490;53.656;10.076;2023-02-03T00:27:32;99628.66;;;-145.95;100.00
37648;BME280;23490;53.656;10.076;2023-02-03T00:29:58;99636.94;;;-145.95;100.00
37648;BME280;23490;53.656;10.076;2023-02-03T00:32:24;99610.06;;;-145.95;100.00
37648;BME280;23490;53.656;10.076;2023-02-03T00:34:49;99597.69;;;-145.95;100.00
37648;BME280;23490;53.656;10.076;2023-02-03T00:37:14;99583.22;;;-145.95;100.00
37648;BME280;23490;53.656;10.076;2023-02-03T00:39:40;99655.50;;;-145.95;100.00
37648;BME280;23490;53.656;10.076;2023-02-03T00:42:05;99583.22;;;-145.95;100.00
37648;BME280;23490;53.656;10.076;2023-02-03T00:44:31;99546.06;;;-145.95;100.00
37648;BME280;23490;53.656;10.076;2023-02-03T00:46:56;99599.75;;;-145.95;100.00
37648;BME280;23490;53.656;10.076;2023-02-03T00:49:22;99572.91;;;-145.95;100.00
37648;BME280;23490;53.656;10.076;2023-02-03T00:51:47;99562.56;;;-145.95;100.00
37648;BME280;23490;53.656;10.076;2023-02-03T00:54:12;99579.09;;;-145.95;100.00
37648;BME280;23490;53.656;10.076;2023-02-03T00:56:38;99579.09;;;-145.95;100.00
37648;BME280;23490;53.656;10.076;2023-02-03T00:59:04;99537.78;;;-145.95;100.00
37648;BME280;23490;53.656;10.076;2023-02-03T01:01:29;99537.78;;;-145.95;100.00
37648;BME280;23490;53.656;10.076;2023-02-03T01:03:55;99570.84;;;-145.95;100.00
37648;BME280;23490;53.656;10.076;2023-02-03T01:06:22;99527.47;;;-145.95;100.00
37648;BME280;23490;53.656;10.076;2023-02-03T01:08:48;99525.41;;;-145.95;100.00
37648;BME280;23490;53.656;10.076;2023-02-03T01:11:16;99459.31;;;-145.95;100.00
37648;BME280;23490;53.656;10.076;2023-02-03T01:13:42;99477.91;;;-145.95;100.00
37648;BME280;23490;53.656;10.076;2023-02-03T01:16:13;99508.88;;;-145.95;100.00
37648;BME280;23490;53.656;10.076;2023-02-03T01:18:39;99541.91;;;-145.95;100.00
37648;BME280;23490;53.656;10.076;2023-02-03T01:21:11;99496.47;;;-145.95;100.00
37648;BME280;23490;53.656;10.076;2023-02-03T01:23:36;99537.78;;;-145.95;100.00
37648;BME280;23490;53.656;10.076;2023-02-03T01:26:08;99500.63;;;-145.95;100.00
37648;BME280;23490;53.656;10.076;2023-02-03T01:28:34;99484.09;;;-145.95;100.00
37648;BME280;23490;53.656;10.076;2023-02-03T01:31:18;99523.34;;;-145.95;100.00
37648;BME280;23490;53.656;10.076;2023-02-03T01:33:44;99482.03;;;-145.95;100.00
37648;BME280;23490;53.656;10.076;2023-02-03T01:36:15;99500.63;;;-145.95;100.00
37648;BME280;23490;53.656;10.076;2023-02-03T01:38:40;99475.84;;;-145.95;100.00
37648;BME280;23490;53.656;10.076;2023-02-03T01:41:08;99467.56;;;-145.95;100.00
37648;BME280;23490;53.656;10.076;2023-02-03T01:43:39;99475.84;;;-145.95;100.00
37648;BME280;23490;53.656;10.076;2023-02-03T01:48:51;99444.84;;;-145.95;100.00
37648;BME280;23490;53.656;10.076;2023-02-03T01:51:18;99492.34;;;-145.95;100.00
37648;BME280;23490;53.656;10.076;2023-02-03T01:53:44;99469.63;;;-145.95;100.00
37648;BME280;23490;53.656;10.076;2023-02-03T01:56:10;99492.34;;;-145.95;100.00
37648;BME280;23490;53.656;10.076;2023-02-03T01:58:38;99498.56;;;-145.95;100.00
37648;BME280;23490;53.656;10.076;2023-02-03T02:01:05;99494.41;;;-145.95;100.00
37648;BME280;23490;53.656;10.076;2023-02-03T02:03:35;99455.19;;;-145.95;100.00
37648;BME280;23490;53.656;10.076;2023-02-03T02:06:05;99508.88;;;-145.95;100.00
37648;BME280;23490;53.656;10.076;2023-02-03T02:08:30;99475.84;;;-145.95;100.00
37648;BME280;23490;53.656;10.076;2023-02-03T02:10:58;99500.63;;;-145.95;100.00
37648;BME280;23490;53.656;10.076;2023-02-03T02:13:23;99496.47;;;-145.95;100.00
37648;BME280;23490;53.656;10.076;2023-02-03T02:16:15;99467.56;;;-145.95;100.00
37648;BME280;23490;53.656;10.076;2023-02-03T02:30:35;99492.34;;;-145.95;100.00
37648;BME280;23490;53.656;10.076;2023-02-03T02:38:49;99446.91;;;-145.95;100.00
37648;BME280;23490;53.656;10.076;2023-02-03T02:41:28;99471.69;;;-145.95;100.00
37648;BME280;23490;53.656;10.076;2023-02-03T02:44:09;99442.78;;;-145.95;100.00
37648;BME280;23490;53.656;10.076;2023-02-03T02:46:39;99496.47;;;-145.95;100.00
37648;BME280;23490;53.656;10.076;2023-02-03T02:49:24;99438.66;;;-145.95;100.00
37648;BME280;23490;53.656;10.076;2023-02-03T02:51:51;99467.56;;;-145.95;100.00
37648;BME280;23490;53.656;10.076;2023-02-03T02:54:21;99444.84;;;-145.95;100.00
37648;BME280;23490;53.656;10.076;2023-02-03T02:56:50;99488.22;;;-145.95;100.00
37648;BME280;23490;53.656;10.076;2023-02-03T02:59:18;99475.84;;;-145.95;100.00
37648;BME280;23490;53.656;10.076;2023-02-03T03:01:43;99463.44;;;-145.95;100.00
37648;BME280;23490;53.656;10.076;2023-02-03T03:04:11;99467.56;;;-145.95;100.00
37648;BME280;23490;53.656;10.076;2023-02-03T03:06:48;99459.31;;;-145.95;100.00
37648;BME280;23490;53.656;10.076;2023-02-03T03:09:20;99467.56;;;-145.95;100.00
37648;BME280;23490;53.656;10.076;2023-02-03T03:11:50;99467.56;;;-145.95;100.00
37648;BME280;23490;53.656;10.076;2023-02-03T03:14:17;99492.34;;;-145.95;100.00
37648;BME280;23490;53.656;10.076;2023-02-03T03:16:48;99475.84;;;-145.95;100.00
37648;BME280;23490;53.656;10.076;2023-02-03T03:19:19;99451.06;;;-145.95;100.00
37648;BME280;23490;53.656;10.076;2023-02-03T03:21:49;99446.91;;;-145.95;100.00
37648;BME280;23490;53.656;10.076;2023-02-03T03:24:23;99426.28;;;-145.95;100.00
37648;BME280;23490;53.656;10.076;2023-02-03T03:27:08;99471.69;;;-145.95;100.00
37648;BME280;23490;53.656;10.076;2023-02-03T03:29:41;99451.06;;;-145.95;100.00
37648;BME280;23490;53.656;10.076;2023-02-03T03:32:08;99488.22;;;-145.95;100.00
37648;BME280;23490;53.656;10.076;2023-02-03T03:34:34;99457.25;;;-145.95;100.00
37648;BME280;23490;53.656;10.076;2023-02-03T03:37:04;99471.69;;;-145.95;100.00
37648;BME280;23490;53.656;10.076;2023-02-03T03:39:39;99451.06;;;-145.95;100.00
37648;BME280;23490;53.656;10.076;2023-02-03T03:42:11;99500.63;;;-145.95;100.00
37648;BME280;23490;53.656;10.076;2023-02-03T03:44:42;99465.50;;;-145.95;100.00
37648;BME280;23490;53.656;10.076;2023-02-03T03:47:13;99492.34;;;-145.95;100.00
37648;BME280;23490;53.656;10.076;2023-02-03T03:49:42;99486.16;;;-145.95;100.00
37648;BME280;23490;53.656;10.076;2023-02-03T03:52:14;99459.31;;;-145.95;100.00
37648;BME280;23490;53.656;10.076;2023-02-03T03:54:41;99479.97;;;-145.95;100.00
37648;BME280;23490;53.656;10.076;2023-02-03T03:57:18;99451.06;;;-145.95;100.00
37648;BME280;23490;53.656;10.076;2023-02-03T03:59:47;99438.66;;;-145.95;100.00
37648;BME280;23490;53.656;10.076;2023-02-03T04:02:15;99484.09;;;-145.95;100.00
37648;BME280;23490;53.656;10.076;2023-02-03T04:04:43;99430.41;;;-145.95;100.00
37648;BME280;23490;53.656;10.076;2023-02-03T04:07:11;99488.22;;;-145.95;100.00
37648;BME280;23490;53.656;10.076;2023-02-03T04:09:37;99461.38;;;-145.95;100.00
37648;BME280;23490;53.656;10.076;2023-02-03T04:12:03;99455.19;;;-145.95;100.00
37648;BME280;23490;53.656;10.076;2023-02-03T04:14:35;99471.69;;;-145.95;100.00
37648;BME280;23490;53.656;10.076;2023-02-03T04:17:03;99471.69;;;-145.95;100.00
37648;BME280;23490;53.656;10.076;2023-02-03T04:19:28;99471.69;;;-145.95;100.00
37648;BME280;23490;53.656;10.076;2023-02-03T04:21:53;99529.53;;;-145.95;100.00
37648;BME280;23490;53.656;10.076;2023-02-03T04:24:19;99479.97;;;-145.95;100.00
37648;BME280;23490;53.656;10.076;2023-02-03T04:26:44;99508.88;;;-145.95;100.00
37648;BME280;23490;53.656;10.076;2023-02-03T04:29:09;99496.47;;;-145.95;100.00
37648;BME280;23490;53.656;10.076;2023-02-03T04:31:35;99544.00;;;-145.95;100.00
37648;BME280;23490;53.656;10.076;2023-02-03T04:34:00;99479.97;;;-145.95;100.00
37648;BME280;23490;53.656;10.076;2023-02-03T04:36:25;99496.47;;;-145.95;100.00
37648;BME280;23490;53.656;10.076;2023-02-03T04:38:51;99502.69;;;-145.95;100.00
37648;BME280;23490;53.656;10.076;2023-02-03T04:41:16;99479.97;;;-145.95;100.00
37648;BME280;23490;53.656;10.076;2023-02-03T04:43:42;99486.16;;;-145.95;100.00
37648;BME280;23490;53.656;10.076;2023-02-03T04:46:07;99467.56;;;-145.95;100.00
37648;BME280;23490;53.656;10.076;2023-02-03T04:48:33;99500.63;;;-145.95;100.00
37648;BME280;23490;53.656;10.076;2023-02-03T04:51:02;99438.66;;;-145.95;100.00
37648;BME280;23490;53.656;10.076;2023-02-03T04:53:29;99475.84;;;-145.95;100.00
37648;BME280;23490;53.656;10.076;2023-02-03T04:55:54;99455.19;;;-145.95;100.00
37648;BME280;23490;53.656;10.076;2023-02-03T04:58:19;99479.97;;;-145.95;100.00
37648;BME280;23490;53.656;10.076;2023-02-03T05:00:44;99459.31;;;-145.95;100.00
37648;BME280;23490;53.656;10.076;2023-02-03T05:03:10;99479.97;;;-145.95;100.00
37648;BME280;23490;53.656;10.076;2023-02-03T05:05:35;99459.31;;;-145.95;100.00
37648;BME280;23490;53.656;10.076;2023-02-03T05:08:00;99504.75;;;-145.95;100.00
37648;BME280;23490;53.656;10.076;2023-02-03T05:10:26;99453.13;;;-145.95;100.00
37648;BME280;23490;53.656;10.076;2023-02-03T05:12:51;99451.06;;;-145.95;100.00
37648;BME280;23490;53.656;10.076;2023-02-03T05:15:16;99475.84;;;-145.95;100.00
37648;BME280;23490;53.656;10.076;2023-02-03T05:17:42;99482.03;;;-145.95;100.00
37648;BME280;23490;53.656;10.076;2023-02-03T05:20:07;99490.28;;;-145.95;100.00
37648;BME280;23490;53.656;10.076;2023-02-03T05:22:33;99479.97;;;-145.95;100.00
37648;BME280;23490;53.656;10.076;2023-02-03T05:25:00;99451.06;;;-145.95;100.00
37648;BME280;23490;53.656;10.076;2023-02-03T05:27:25;99488.22;;;-145.95;100.00
37648;BME280;23490;53.656;10.076;2023-02-03T05:29:51;99488.22;;;-145.95;100.00
37648;BME280;23490;53.656;10.076;2023-02-03T05:32:16;99471.69;;;-145.95;100.00
37648;BME280;23490;53.656;10.076;2023-02-03T05:34:41;99490.28;;;-145.95;100.00
37648;BME280;23490;53.656;10.076;2023-02-03T05:37:07;99477.91;;;-145.95;100.00
37648;BME280;23490;53.656;10.076;2023-02-03T05:39:32;99461.38;;;-145.95;100.00
37648;BME280;23490;53.656;10.076;2023-02-03T05:41:57;99492.34;;;-145.95;100.00
37648;BME280;23490;53.656;10.076;2023-02-03T05:44:25;99455.19;;;-145.95;100.00
37648;BME280;23490;53.656;10.076;2023-02-03T05:46:55;99426.28;;;-145.95;100.00
37648;BME280;23490;53.656;10.076;2023-02-03T05:49:20;99488.22;;;-145.95;100.00
37648;BME280;23490;53.656;10.076;2023-02-03T05:51:47;99459.31;;;-145.95;100.00
37648;BME280;23490;53.656;10.076;2023-02-03T05:54:13;99515.06;;;-145.95;100.00
37648;BME280;23490;53.656;10.076;2023-02-03T05:56:38;99506.81;;;-145.95;100.00
37648;BME280;23490;53.656;10.076;2023-02-03T05:59:04;99475.84;;;-145.95;100.00
37648;BME280;23490;53.656;10.076;2023-02-03T06:01:31;99465.50;;;-145.95;100.00
37648;BME280;23490;53.656;10.076;2023-02-03T06:03:56;99455.19;;;-145.95;100.00
37648;BME280;23490;53.656;10.076;2023-02-03T06:06:22;99467.56;;;-145.95;100.00
37648;BME280;23490;53.656;10.076;2023-02-03T06:08:47;99451.06;;;-145.95;100.00
37648;BME280;23490;53.656;10.076;2023-02-03T06:11:12;99496.47;;;-145.95;100.00
37648;BME280;23490;53.656;10.076;2023-02-03T06:13:38;99492.34;;;-145.95;100.00
37648;BME280;23490;53.656;10.076;2023-02-03T06:16:03;99504.75;;;-145.95;100.00
37648;BME280;23490;53.656;10.076;2023-02-03T06:18:29;99451.06;;;-145.95;100.00
37648;BME280;23490;53.656;10.076;2023-02-03T06:20:54;99496.47;;;-145.95;100.00
37648;BME280;23490;53.656;10.076;2023-02-03T06:23:19;99471.69;;;-145.95;100.00
37648;BME280;23490;53.656;10.076;2023-02-03T06:25:49;99463.44;;;-145.95;100.00
37648;BME280;23490;53.656;10.076;2023-02-03T06:28:15;99455.19;;;-145.95;100.00
37648;BME280;23490;53.656;10.076;2023-02-03T06:30:41;99467.56;;;-145.95;100.00
37648;BME280;23490;53.656;10.076;2023-02-03T06:33:06;99463.44;;;-145.95;100.00
37648;BME280;23490;53.656;10.076;2023-02-03T06:35:31;99484.09;;;-145.95;100.00
37648;BME280;23490;53.656;10.076;2023-02-03T06:37:57;99440.72;;;-145.95;100.00
37648;BME280;23490;53.656;10.076;2023-02-03T06:40:22;99467.56;;;-145.95;100.00
37648;BME280;23490;53.656;10.076;2023-02-03T06:42:48;99430.41;;;-145.95;100.00
37648;BME280;23490;53.656;10.076;2023-02-03T06:45:15;99434.53;;;-145.95;100.00
37648;BME280;23490;53.656;10.076;2023-02-03T06:47:41;99430.41;;;-145.95;100.00
37648;BME280;23490;53.656;10.076;2023-02-03T06:50:09;99442.78;;;-145.95;100.00
37648;BME280;23490;53.656;10.076;2023-02-03T06:52:35;99459.31;;;-145.95;100.00
37648;BME280;23490;53.656;10.076;2023-02-03T06:55:00;99473.75;;;-145.95;100.00
37648;BME280;23490;53.656;10.076;2023-02-03T06:57:25;99486.16;;;-145.95;100.00
37648;BME280;23490;53.656;10.076;2023-02-03T06:59:51;99413.88;;;-145.95;100.00
37648;BME280;23490;53.656;10.076;2023-02-03T07:02:16;99467.56;;;-145.95;100.00
37648;BME280;23490;53.656;10.076;2023-02-03T07:04:41;99451.06;;;-145.95;100.00
37648;BME280;23490;53.656;10.076;2023-02-03T07:07:12;99471.69;;;-145.95;100.00
37648;BME280;23490;53.656;10.076;2023-02-03T07:09:38;99475.84;;;-145.95;100.00
37648;BME280;23490;53.656;10.076;2023-02-03T07:12:05;99442.78;;;-145.95;100.00
37648;BME280;23490;53.656;10.076;2023-02-03T07:14:30;99420.06;;;-145.95;100.00
37648;BME280;23490;53.656;10.076;2023-02-03T07:16:56;99442.78;;;-145.95;100.00
37648;BME280;23490;53.656;10.076;2023-02-03T07:19:21;99420.06;;;-145.95;100.00
37648;BME280;23490;53.656;10.076;2023-02-03T07:21:47;99405.63;;;-145.95;100.00
37648;BME280;23490;53.656;10.076;2023-02-03T07:24:12;99415.94;;;-145.95;100.00
37648;BME280;23490;53.656;10.076;2023-02-03T07:26:37;99448.97;;;-145.95;100.00
37648;BME280;23490;53.656;10.076;2023-02-03T07:29:03;99420.06;;;-145.95;100.00
37648;BME280;23490;53.656;10.076;2023-02-03T07:31:29;99436.59;;;-145.95;100.00
37648;BME280;23490;53.656;10.076;2023-02-03T07:33:55;99405.63;;;-145.95;100.00
37648;BME280;23490;53.656;10.076;2023-02-03T07:36:20;99422.13;;;-145.95;100.00
37648;BME280;23490;53.656;10.076;2023-02-03T07:38:45;99418.00;;;-145.95;100.00
37648;BME280;23490;53.656;10.076;2023-02-03T07:41:11;99442.78;;;-145.95;100.00
37648;BME280;23490;53.656;10.076;2023-02-03T07:43:36;99401.50;;;-145.95;100.00
37648;BME280;23490;53.656;10.076;2023-02-03T07:46:01;99436.59;;;-145.95;100.00
37648;BME280;23490;53.656;10.076;2023-02-03T07:48:27;99442.78;;;-145.95;100.00
37648;BME280;23490;53.656;10.076;2023-02-03T07:50:52;99409.75;;;-145.95;100.00
37648;BME280;23490;53.656;10.076;2023-02-03T07:53:18;99409.75;;;-145.95;100.00
37648;BME280;23490;53.656;10.076;2023-02-03T07:55:43;99426.28;;;-145.95;100.00
37648;BME280;23490;53.656;10.076;2023-02-03T07:58:09;99442.78;;;-145.95;100.00
37648;BME280;23490;53.656;10.076;2023-02-03T08:00:34;99424.19;;;-145.95;100.00
37648;BME280;23490;53.656;10.076;2023-02-03T08:02:59;99422.13;;;-145.95;100.00
37648;BME280;23490;53.656;10.076;2023-02-03T08:05:25;99459.31;;;-145.95;100.00
37648;BME280;23490;53.656;10.076;2023-02-03T08:07:50;99479.97;;;-145.95;100.00
37648;BME280;23490;53.656;10.076;2023-02-03T08:10:16;99488.22;;;-145.95;100.00
37648;BME280;23490;53.656;10.076;2023-02-03T08:12:42;99523.34;;;-145.95;100.00
37648;BME280;23490;53.656;10.076;2023-02-03T08:15:09;99525.41;;;-145.95;100.00
37648;BME280;23490;53.656;10.076;2023-02-03T08:17:34;99519.22;;;-145.95;100.00
37648;BME280;23490;53.656;10.076;2023-02-03T08:20:00;99506.81;;;-145.95;100.00
37648;BME280;23490;53.656;10.076;2023-02-03T08:22:25;99496.47;;;-145.95;100.00
37648;BME280;23490;53.656;10.076;2023-02-03T08:24:50;99517.13;;;-145.95;100.00
37648;BME280;23490;53.656;10.076;2023-02-03T08:27:18;99492.34;;;-145.95;100.00
37648;BME280;23490;53.656;10.076;2023-02-03T08:29:44;99504.75;;;-145.95;100.00
37648;BME280;23490;53.656;10.076;2023-02-03T08:32:11;99455.19;;;-145.95;100.00
37648;BME280;23490;53.656;10.076;2023-02-03T08:34:37;99484.09;;;-145.95;100.00
37648;BME280;23490;53.656;10.076;2023-02-03T08:37:03;99475.84;;;-145.95;100.00
37648;BME280;23490;53.656;10.076;2023-02-03T08:39:28;99492.34;;;-145.95;100.00
37648;BME280;23490;53.656;10.076;2023-02-03T08:41:54;99467.56;;;-145.95;100.00
37648;BME280;23490;53.656;10.076;2023-02-03T08:44:19;99467.56;;;-145.95;100.00
37648;BME280;23490;53.656;10.076;2023-02-03T08:46:49;99465.50;;;-145.95;100.00
37648;BME280;23490;53.656;10.076;2023-02-03T08:49:14;99422.13;;;-145.95;100.00
37648;BME280;23490;53.656;10.076;2023-02-03T08:51:40;99475.84;;;-145.95;100.00
37648;BME280;23490;53.656;10.076;2023-02-03T08:54:05;99430.41;;;-145.95;100.00
37648;BME280;23490;53.656;10.076;2023-02-03T08:56:30;99463.44;;;-145.95;100.00
37648;BME280;23490;53.656;10.076;2023-02-03T08:58:57;99451.06;;;-145.95;100.00
37648;BME280;23490;53.656;10.076;2023-02-03T09:01:23;99453.13;;;-145.95;100.00
37648;BME280;23490;53.656;10.076;2023-02-03T09:03:48;99440.72;;;-145.95;100.00
37648;BME280;23490;53.656;10.076;2023-02-03T09:06:13;99399.41;;;-145.95;100.00
37648;BME280;23490;53.656;10.076;2023-02-03T09:08:42;99401.50;;;-145.95;100.00
37648;BME280;23490;53.656;10.076;2023-02-03T09:11:09;99436.59;;;-145.95;100.00
37648;BME280;23490;53.656;10.076;2023-02-03T09:13:36;99434.53;;;-145.95;100.00
37648;BME280;23490;53.656;10.076;2023-02-03T09:16:02;99430.41;;;-145.95;100.00
37648;BME280;23490;53.656;10.076;2023-02-03T09:18:27;99465.50;;;-145.95;100.00
37648;BME280;23490;53.656;10.076;2023-02-03T09:20:59;99451.06;;;-145.95;99.84
37648;BME280;23490;53.656;10.076;2023-02-03T09:23:25;99401.50;;;-145.95;99.74
37648;BME280;23490;53.656;10.076;2023-02-03T09:25:50;99444.84;;;-145.95;100.00
37648;BME280;23490;53.656;10.076;2023-02-03T09:28:15;99455.19;;;-145.95;100.00
37648;BME280;23490;53.656;10.076;2023-02-03T09:30:40;99434.53;;;-145.95;99.82
37648;BME280;23490;53.656;10.076;2023-02-03T09:33:06;99430.41;;;-145.95;99.73
37648;BME280;23490;53.656;10.076;2023-02-03T09:35:31;99424.19;;;-145.95;99.32
37648;BME280;23490;53.656;10.076;2023-02-03T09:37:57;99432.47;;;-145.95;99.95
37648;BME280;23490;53.656;10.076;2023-02-03T09:40:27;99457.25;;;-145.95;99.19
37648;BME280;23490;53.656;10.076;2023-02-03T09:42:58;99405.63;;;-145.95;99.82
37648;BME280;23490;53.656;10.076;2023-02-03T09:45:28;99401.50;;;-145.95;98.84
37648;BME280;23490;53.656;10.076;2023-02-03T09:48:02;99422.13;;;-145.95;98.90
37648;BME280;23490;53.656;10.076;2023-02-03T09:50:32;99401.50;;;-145.95;97.54
37648;BME280;23490;53.656;10.076;2023-02-03T09:53:04;99399.41;;;-145.95;97.82
37648;BME280;23490;53.656;10.076;2023-02-03T09:55:42;99413.88;;;-145.95;96.94
37648;BME280;23490;53.656;10.076;2023-02-03T09:58:12;99384.97;;;-145.95;96.57
37648;BME280;23490;53.656;10.076;2023-02-03T10:00:55;99389.09;;;-145.95;96.07
37648;BME280;23490;53.656;10.076;2023-02-03T10:17:38;99432.47;;;-145.95;92.27
37648;BME280;23490;53.656;10.076;2023-02-03T10:23:13;99405.63;;;-145.95;93.49
37648;BME280;23490;53.656;10.076;2023-02-03T10:25:41;99418.00;;;-145.95;93.86
37648;BME280;23490;53.656;10.076;2023-02-03T10:28:15;99370.50;;;-145.95;92.95
37648;BME280;23490;53.656;10.076;2023-02-03T10:30:45;99389.09;;;-145.95;94.43
37648;BME280;23490;53.656;10.076;2023-02-03T10:33:17;99345.72;;;-145.95;93.46
37648;BME280;23490;53.656;10.076;2023-02-03T10:41:03;99374.63;;;-145.95;92.85
37648;BME280;23490;53.656;10.076;2023-02-03T10:43:30;99389.09;;;-145.95;93.75
37648;BME280;23490;53.656;10.076;2023-02-03T10:46:34;99372.56;;;-145.95;92.90
37648;BME280;23490;53.656;10.076;2023-02-03T10:49:00;99397.34;;;-145.95;92.31
37648;BME280;23490;53.656;10.076;2023-02-03T10:51:33;99384.97;;;-145.95;93.10
37648;BME280;23490;53.656;10.076;2023-02-03T10:54:00;99393.22;;;-145.95;92.80
37648;BME280;23490;53.656;10.076;2023-02-03T10:56:36;99393.22;;;-145.95;90.07
37648;BME280;23490;53.656;10.076;2023-02-03T10:59:03;99401.50;;;-145.95;89.86
37648;BME280;23490;53.656;10.076;2023-02-03T11:01:44;99376.69;;;-145.95;90.14
37648;BME280;23490;53.656;10.076;2023-02-03T11:04:31;99372.56;;;-145.95;90.11
37648;BME280;23490;53.656;10.076;2023-02-03T11:07:03;99397.34;;;-145.95;90.63
37648;BME280;23490;53.656;10.076;2023-02-03T11:12:14;99380.84;;;-145.95;89.36
37648;BME280;23490;53.656;10.076;2023-02-03T11:14:44;99364.31;;;-145.95;89.47
37648;BME280;23490;53.656;10.076;2023-02-03T11:19:45;99316.81;;;-145.95;88.81
37648;BME280;23490;53.656;10.076;2023-02-03T11:22:13;99327.13;;;-145.95;87.05
37648;BME280;23490;53.656;10.076;2023-02-03T11:24:50;99323.00;;;-145.95;87.05
37648;BME280;23490;53.656;10.076;2023-02-03T11:27:17;99370.50;;;-145.95;85.99
37648;BME280;23490;53.656;10.076;2023-02-03T11:29:49;99314.75;;;-145.95;87.89
37648;BME280;23490;53.656;10.076;2023-02-03T11:32:28;99343.66;;;-145.95;87.78
37648;BME280;23490;53.656;10.076;2023-02-03T11:35:00;99354.00;;;-145.95;88.11
37648;BME280;23490;53.656;10.076;2023-02-03T11:37:31;99325.06;;;-145.95;87.73
37648;BME280;23490;53.656;10.076;2023-02-03T11:42:33;99281.72;;;-145.95;86.69
37648;BME280;23490;53.656;10.076;2023-02-03T11:50:49;99320.94;;;-145.95;85.31
37648;BME280;23490;53.656;10.076;2023-02-03T11:59:31;99304.41;;;-145.95;83.90
37648;BME280;23490;53.656;10.076;2023-02-03T12:02:27;99347.78;;;-145.95;85.32
37648;BME280;23490;53.656;10.076;2023-02-03T12:08:35;99327.13;;;-145.95;86.05
37648;BME280;23490;53.656;10.076;2023-02-03T12:13:50;99306.50;;;-145.95;82.08
37648;BME280;23490;53.656;10.076;2023-02-03T12:22:24;99269.31;;;-145.95;83.22
37648;BME280;23490;53.656;10.076;2023-02-03T12:27:32;99343.66;;;-145.95;81.50
37648;BME280;23490;53.656;10.076;2023-02-03T12:30:13;99320.94;;;-145.95;80.30
37648;BME280;23490;53.656;10.076;2023-02-03T12:33:37;99325.06;;;-145.95;81.17
37648;BME280;23490;53.656;10.076;2023-02-03T12:35:48;99325.06;;;-145.95;81.70
37648;BME280;23490;53.656;10.076;2023-02-03T12:38:40;99401.50;;;-145.95;81.95
37648;BME280;23490;53.656;10.076;2023-02-03T12:41:12;99314.75;;;-145.95;81.87
37648;BME280;23490;53.656;10.076;2023-02-03T12:43:49;99384.97;;;-145.95;82.64
37648;BME280;23490;53.656;10.076;2023-02-03T12:51:33;99380.84;;;-145.95;82.33
37648;BME280;23490;53.656;10.076;2023-02-03T12:54:29;99399.41;;;-145.95;81.72
37648;BME280;23490;53.656;10.076;2023-02-03T12:57:02;99391.16;;;-145.95;81.03
37648;BME280;23490;53.656;10.076;2023-02-03T12:59:33;99364.31;;;-145.95;82.61
37648;BME280;23490;53.656;10.076;2023-02-03T13:02:08;99380.84;;;-145.95;80.20
37648;BME280;23490;53.656;10.076;2023-02-03T13:04:43;99389.09;;;-145.95;81.22
37648;BME280;23490;53.656;10.076;2023-02-03T13:07:33;99378.78;;;-145.95;81.61
37648;BME280;23490;53.656;10.076;2023-02-03T13:10:15;99401.50;;;-145.95;81.22
37648;BME280;23490;53.656;10.076;2023-02-03T13:12:46;99380.84;;;-145.95;81.31
37648;BME280;23490;53.656;10.076;2023-02-03T13:17:50;99389.09;;;-145.95;82.06
37648;BME280;23490;53.656;10.076;2023-02-03T13:20:22;99376.69;;;-145.95;82.05
37648;BME280;23490;53.656;10.076;2023-02-03T13:22:49;99347.78;;;-145.95;80.98
37648;BME280;23490;53.656;10.076;2023-02-03T13:28:32;99372.56;;;-145.95;81.06
37648;BME280;23490;53.656;10.076;2023-02-03T13:31:25;99393.22;;;-145.95;80.45
37648;BME280;23490;53.656;10.076;2023-02-03T13:34:10;99438.66;;;-145.95;81.15
37648;BME280;23490;53.656;10.076;2023-02-03T13:37:11;99360.19;;;-145.95;81.31
37648;BME280;23490;53.656;10.076;2023-02-03T13:42:18;99368.44;;;-145.95;81.03
37648;BME280;23490;53.656;10.076;2023-02-03T13:44:48;99401.50;;;-145.95;81.63
37648;BME280;23490;53.656;10.076;2023-02-03T13:47:21;99358.13;;;-145.95;80.88
37648;BME280;23490;53.656;10.076;2023-02-03T13:49:57;99343.66;;;-145.95;81.28
37648;BME280;23490;53.656;10.076;2023-02-03T13:52:34;99360.19;;;-145.95;81.86
37648;BME280;23490;53.656;10.076;2023-02-03T13:55:01;99368.44;;;-145.95;82.36
37648;BME280;23490;53.656;10.076;2023-02-03T13:57:32;99389.09;;;-145.95;81.89
37648;BME280;23490;53.656;10.076;2023-02-03T13:59:59;99378.78;;;-145.95;82.54
37648;BME280;23490;53.656;10.076;2023-02-03T14:04:57;99405.63;;;-145.95;81.90